Time;durP1;ratioP1;P1;durP2;ratioP2;P2;SDS_P1;SDS_P2;PMS_P1;PMS_P2;Temp;Humidity;BMP_temperature;BMP_pressure;BME280_temperature;BME280_humidity;BME280_pressure;Samples;Min_cycle;Max_cycle;Signal;HPM_P1;HPM_P2
2022/03/28 00:00:07;;;;;;;8.52;2.47;;;;;;;-143.85;100.00;70650.75;5035309;28;20217;-83
2022/03/28 00:02:33;;;;;;;0.98;0.98;;;;;;;-143.85;100.00;70650.75;5035519;28;20025;-83
2022/03/28 00:04:58;;;;;;;4.18;1.52;;;;;;;-143.85;100.00;70650.75;5035354;28;20029;-82
2022/03/28 00:07:24;;;;;;;6.45;1.50;;;;;;;-143.85;100.00;70650.75;5035800;28;20492;-82
2022/03/28 00:09:49;;;;;;;0.68;0.50;;;;;;;-143.85;100.00;70650.75;5036345;28;20032;-82
2022/03/28 00:12:14;;;;;;;1.27;1.27;;;;;;;-143.85;100.00;70650.75;5035431;28;20105;-82
2022/03/28 00:14:40;;;;;;;2.47;1.52;;;;;;;-143.85;100.00;70650.75;5035410;28;20408;-83
2022/03/28 00:17:05;;;;;;;3.67;1.45;;;;;;;-143.85;100.00;70650.75;5036399;28;20104;-81
2022/03/28 00:19:31;;;;;;;4.15;0.93;;;;;;;-143.85;100.00;70650.75;5035309;28;20112;-82
2022/03/28 00:21:56;;;;;;;1.20;1.20;;;;;;;-143.85;100.00;70650.75;5036434;28;20024;-83
2022/03/28 00:24:22;;;;;;;5.90;1.13;;;;;;;-143.85;100.00;70650.75;5036273;28;20026;-83
2022/03/28 00:26:48;;;;;;;0.82;0.82;;;;;;;-143.85;100.00;70650.75;5035174;28;20087;-83
2022/03/28 00:29:13;;;;;;;2.67;2.20;;;;;;;-143.85;100.00;70650.75;5034903;28;20488;-81
2022/03/28 00:31:39;;;;;;;3.03;1.45;;;;;;;-143.85;100.00;70650.75;5035141;28;20033;-82
2022/03/28 00:34:06;;;;;;;1.48;1.38;;;;;;;-143.85;100.00;70650.75;5034875;28;20029;-81
2022/03/28 00:36:32;;;;;;;2.67;1.35;;;;;;;-143.85;100.00;70650.75;5035815;28;20024;-83
2022/03/28 00:38:57;;;;;;;1.63;0.98;;;;;;;-143.85;100.00;70650.75;5035884;28;20017;-82
2022/03/28 00:41:23;;;;;;;1.00;1.00;;;;;;;-143.85;100.00;70650.75;5035565;28;20018;-81
2022/03/28 00:43:57;;;;;;;0.55;0.55;;;;;;;-143.85;100.00;70650.75;5034596;28;20040;-81
2022/03/28 00:46:23;;;;;;;2.35;1.80;;;;;;;-143.85;100.00;70650.75;5035012;28;20476;-82
2022/03/28 00:48:49;;;;;;;0.80;0.80;;;;;;;-143.85;100.00;70650.75;5034741;28;20048;-82
2022/03/28 00:51:16;;;;;;;0.85;0.85;;;;;;;-143.85;100.00;70650.75;5034634;28;20017;-82
2022/03/28 00:53:42;;;;;;;1.90;1.80;;;;;;;-143.85;100.00;70650.75;5034703;28;20030;-82
2022/03/28 00:56:08;;;;;;;1.25;1.25;;;;;;;-143.85;100.00;70650.75;5034685;28;20021;-83
2022/03/28 00:58:34;;;;;;;0.90;0.90;;;;;;;-143.85;100.00;70650.75;5034576;28;20124;-82
2022/03/28 01:01:01;;;;;;;1.40;1.30;;;;;;;-143.85;100.00;70650.75;5034388;28;20041;-84
2022/03/28 01:03:26;;;;;;;1.75;1.65;;;;;;;-143.85;100.00;70650.75;5034606;28;20017;-83
2022/03/28 01:05:52;;;;;;;0.43;0.43;;;;;;;-143.85;100.00;70650.75;5034074;28;20092;-83
2022/03/28 01:08:17;;;;;;;14.15;1.08;;;;;;;-143.85;100.00;70650.75;5034532;28;20156;-83
2022/03/28 01:10:47;;;;;;;0.82;0.82;;;;;;;-143.85;100.00;70650.75;5035672;28;20104;-83
2022/03/28 01:13:13;;;;;;;1.52;1.42;;;;;;;-143.85;100.00;70650.75;5034703;28;20117;-83
2022/03/28 01:15:38;;;;;;;1.88;1.73;;;;;;;-143.85;100.00;70650.75;5034206;28;20061;-84
2022/03/28 01:18:08;;;;;;;2.58;1.27;;;;;;;-143.85;100.00;70650.75;5034313;28;20017;-81
2022/03/28 01:20:36;;;;;;;0.25;0.25;;;;;;;-143.85;100.00;70650.75;5035593;28;20056;-83
2022/03/28 01:23:02;;;;;;;;;;;;;;;-143.85;100.00;70650.75;5034599;28;20104;-82
2022/03/28 01:25:31;;;;;;;8.20;1.90;;;;;;;-143.85;100.00;70650.75;5033850;28;19963;-81
2022/03/28 01:27:58;;;;;;;0.70;0.70;;;;;;;-143.85;100.00;70650.75;5034498;28;20025;-82
2022/03/28 01:30:26;;;;;;;3.95;2.83;;;;;;;-143.85;100.00;70650.75;5033915;28;20028;-82
2022/03/28 01:32:52;;;;;;;1.55;1.40;;;;;;;-143.85;100.00;70650.75;5034254;28;20105;-83
2022/03/28 01:35:44;;;;;;;1.73;1.63;;;;;;;-143.85;100.00;70650.75;5034381;28;20025;-87
2022/03/28 01:38:14;;;;;;;1.27;1.27;;;;;;;-143.85;100.00;70650.75;5032658;28;20053;-82
2022/03/28 01:40:42;;;;;;;2.72;1.83;;;;;;;-143.85;100.00;70650.75;5033567;28;20024;-83
2022/03/28 01:43:08;;;;;;;0.70;0.70;;;;;;;-143.85;100.00;70650.75;5033892;28;20392;-83
2022/03/28 01:45:34;;;;;;;2.65;2.03;;;;;;;-143.85;100.00;70650.75;5033549;28;20025;-82
2022/03/28 01:47:59;;;;;;;1.52;1.27;;;;;;;-143.85;100.00;70650.75;5034202;28;20048;-83
2022/03/28 01:50:25;;;;;;;2.17;1.48;;;;;;;-143.85;100.00;70650.75;5033688;28;20378;-83
2022/03/28 01:52:51;;;;;;;1.08;1.08;;;;;;;-143.85;100.00;70650.75;5033528;28;20025;-82
2022/03/28 01:55:17;;;;;;;1.23;1.23;;;;;;;-143.85;100.00;70650.75;5033425;28;20029;-83
2022/03/28 01:57:44;;;;;;;0.30;0.30;;;;;;;-143.85;100.00;70650.75;5033356;28;20024;-84
2022/03/28 02:00:15;;;;;;;1.52;1.42;;;;;;;-143.85;100.00;70650.75;5033145;28;20079;-83
2022/03/28 02:02:41;;;;;;;1.20;1.20;;;;;;;-143.85;100.00;70650.75;5033498;28;20032;-82
2022/03/28 02:05:11;;;;;;;2.30;0.70;;;;;;;-143.85;100.00;70650.75;5033878;28;20076;-83
2022/03/28 02:07:38;;;;;;;0.70;0.70;;;;;;;-143.85;100.00;70650.75;5033098;28;20500;-83
2022/03/28 02:10:04;;;;;;;0.80;0.80;;;;;;;-143.85;100.00;70650.75;5033303;28;20026;-83
2022/03/28 02:12:29;;;;;;;1.02;1.02;;;;;;;-143.85;100.00;70650.75;5034337;28;20500;-86
2022/03/28 02:14:55;;;;;;;1.55;0.88;;;;;;;-143.85;100.00;70650.75;5033281;28;20504;-81
2022/03/28 02:17:20;;;;;;;1.58;1.48;;;;;;;-143.85;100.00;70650.75;5033694;28;20028;-83
2022/03/28 02:19:46;;;;;;;1.42;1.33;;;;;;;-143.85;100.00;70650.75;5042033;28;20029;-84
2022/03/28 02:22:11;;;;;;;1.33;1.23;;;;;;;-143.85;100.00;70650.75;5034278;28;20377;-84
2022/03/28 02:24:37;;;;;;;1.40;1.05;;;;;;;-143.85;100.00;70650.75;5033111;28;20029;-85
2022/03/28 02:27:02;;;;;;;0.93;0.93;;;;;;;-143.85;100.00;70650.75;5033240;28;20025;-85
2022/03/28 02:29:28;;;;;;;2.03;0.60;;;;;;;-143.85;100.00;70650.75;5032684;28;20022;-85
2022/03/28 02:31:54;;;;;;;4.50;1.70;;;;;;;-143.85;100.00;70650.75;5032797;28;20029;-84
2022/03/28 02:34:19;;;;;;;5.03;4.50;;;;;;;-143.85;100.00;70650.75;5032887;28;20087;-85
2022/03/28 02:36:45;;;;;;;1.50;1.42;;;;;;;-143.85;100.00;70650.75;5033000;28;20020;-85
2022/03/28 02:39:10;;;;;;;0.70;0.70;;;;;;;-143.85;100.00;70650.75;5033879;28;20028;-85
2022/03/28 02:41:36;;;;;;;1.52;1.42;;;;;;;-143.85;100.00;70650.75;5032776;28;20036;-85
2022/03/28 02:44:02;;;;;;;0.35;0.35;;;;;;;-143.85;100.00;70650.75;5032725;28;20026;-84
2022/03/28 02:46:27;;;;;;;4.80;2.25;;;;;;;-143.85;100.00;70650.75;5033244;28;20045;-84
2022/03/28 02:48:53;;;;;;;2.22;2.13;;;;;;;-143.85;100.00;70650.75;5032166;28;20032;-84
2022/03/28 02:51:18;;;;;;;0.93;0.88;;;;;;;-143.85;100.00;70650.75;5032719;28;20056;-84
2022/03/28 02:53:43;;;;;;;5.13;4.05;;;;;;;-143.85;100.00;70650.75;5033693;28;20052;-85
2022/03/28 02:56:09;;;;;;;3.63;2.67;;;;;;;-143.85;100.00;70650.75;5033692;28;20021;-85
2022/03/28 02:58:34;;;;;;;2.30;2.17;;;;;;;-143.85;100.00;70650.75;5032309;28;20041;-85
2022/03/28 03:01:00;;;;;;;2.45;2.30;;;;;;;-143.85;100.00;70650.75;5032061;28;20052;-85
2022/03/28 03:03:25;;;;;;;3.47;2.33;;;;;;;-143.85;100.00;70650.75;5033607;28;20017;-84
2022/03/28 03:05:50;;;;;;;3.08;1.77;;;;;;;-143.85;100.00;70650.75;5032406;28;20029;-86
2022/03/28 03:08:16;;;;;;;0.43;0.43;;;;;;;-143.85;100.00;70650.75;5032358;28;20071;-85
2022/03/28 03:10:43;;;;;;;2.00;1.90;;;;;;;-143.85;100.00;70650.75;5032451;28;20017;-85
2022/03/28 03:13:08;;;;;;;1.58;1.48;;;;;;;-143.85;100.00;70650.75;5032320;28;20025;-85
2022/03/28 03:15:34;;;;;;;1.25;1.15;;;;;;;-143.85;100.00;70650.75;5032269;28;20019;-85
2022/03/28 03:18:00;;;;;;;2.90;1.48;;;;;;;-143.85;100.00;70650.75;5032074;28;20025;-84
2022/03/28 03:20:25;;;;;;;1.38;1.38;;;;;;;-143.85;100.00;70650.75;5033243;28;20018;-84
2022/03/28 03:22:51;;;;;;;21.27;3.78;;;;;;;-143.85;100.00;70650.75;5032163;28;20029;-85
2022/03/28 03:25:16;;;;;;;2.75;2.35;;;;;;;-143.85;100.00;70650.75;5033268;28;20111;-84
2022/03/28 03:27:42;;;;;;;0.85;0.80;;;;;;;-143.85;100.00;70650.75;5032600;28;20045;-84
2022/03/28 03:30:09;;;;;;;1.65;1.58;;;;;;;-143.85;100.00;70650.75;5035243;28;20021;-83
2022/03/28 03:32:36;;;;;;;1.65;1.48;;;;;;;-143.85;100.00;70650.75;5036955;28;20033;-84
2022/03/28 03:35:02;;;;;;;0.90;0.88;;;;;;;-143.85;100.00;70650.75;5036039;28;20116;-84
2022/03/28 03:37:28;;;;;;;0.68;0.68;;;;;;;-143.85;100.00;70650.75;5036253;28;20080;-84
2022/03/28 03:39:54;;;;;;;7.70;2.25;;;;;;;-143.85;100.00;70650.75;5035799;28;20021;-84
2022/03/28 03:42:19;;;;;;;2.08;1.98;;;;;;;-143.85;100.00;70650.75;5035888;28;20087;-84
2022/03/28 03:44:45;;;;;;;1.52;1.42;;;;;;;-143.85;100.00;70650.75;5036339;28;20017;-84
2022/03/28 03:47:10;;;;;;;2.67;1.92;;;;;;;-143.85;100.00;70650.75;5036646;28;20025;-84
2022/03/28 03:49:35;;;;;;;4.60;2.92;;;;;;;-143.85;100.00;70650.75;5035886;28;20456;-83
2022/03/28 03:52:01;;;;;;;1.73;1.38;;;;;;;-143.85;100.00;70650.75;5036113;28;20071;-84
2022/03/28 03:54:28;;;;;;;1.95;1.38;;;;;;;-143.85;100.00;70650.75;5036301;28;20025;-84
2022/03/28 03:56:53;;;;;;;1.73;1.63;;;;;;;-143.85;100.00;70650.75;5037686;28;20335;-84
2022/03/28 03:59:19;;;;;;;10.35;1.88;;;;;;;-143.85;100.00;70650.75;5036531;28;20032;-85
2022/03/28 04:01:44;;;;;;;1.30;1.30;;;;;;;-143.85;100.00;70650.75;5037730;28;20053;-83
2022/03/28 04:04:12;;;;;;;1.92;1.77;;;;;;;-143.85;100.00;70650.75;5037225;28;20052;-82
2022/03/28 04:06:38;;;;;;;;;;;;;;;-143.85;100.00;70650.75;5037873;28;20032;-82
2022/03/28 04:09:03;;;;;;;0.75;0.75;;;;;;;-143.85;100.00;70650.75;5035914;28;20007;-82
2022/03/28 04:11:28;;;;;;;0.70;0.70;;;;;;;-143.85;100.00;70650.75;5035610;28;20526;-82
2022/03/28 04:13:54;;;;;;;2.05;1.50;;;;;;;-143.85;100.00;70650.75;5036331;28;20022;-83
2022/03/28 04:16:19;;;;;;;1.60;1.50;;;;;;;-143.85;100.00;70650.75;5038029;28;20457;-83
2022/03/28 04:18:44;;;;;;;3.50;2.58;;;;;;;-143.85;100.00;70650.75;5036258;28;20517;-83
2022/03/28 04:21:10;;;;;;;1.50;1.40;;;;;;;-143.85;100.00;70650.75;5036002;28;20017;-83
2022/03/28 04:23:35;;;;;;;1.45;1.38;;;;;;;-143.85;100.00;70650.75;5036042;28;20071;-85
2022/03/28 04:26:01;;;;;;;3.42;1.80;;;;;;;-143.85;100.00;70650.75;5036644;28;20048;-85
2022/03/28 04:28:26;;;;;;;2.45;2.35;;;;;;;-143.85;100.00;70650.75;5036298;28;20164;-85
2022/03/28 04:30:52;;;;;;;2.08;2.00;;;;;;;-143.85;100.00;70650.75;5036035;28;20025;-85
2022/03/28 04:33:18;;;;;;;1.20;1.15;;;;;;;-143.85;100.00;70650.75;5036554;28;20021;-84
2022/03/28 04:35:43;;;;;;;1.55;1.45;;;;;;;-143.85;100.00;70650.75;5036078;28;20021;-86
2022/03/28 04:38:12;;;;;;;0.52;0.52;;;;;;;-143.85;100.00;70650.75;5037305;28;20021;-83
2022/03/28 04:40:37;;;;;;;1.13;1.13;;;;;;;-143.85;100.00;70650.75;5036122;28;20025;-83
2022/03/28 04:43:04;;;;;;;1.60;1.50;;;;;;;-143.85;100.00;70650.75;5035870;28;20531;-85
2022/03/28 04:45:30;;;;;;;1.67;1.58;;;;;;;-143.85;100.00;70650.75;5035433;28;20115;-84
2022/03/28 04:47:57;;;;;;;2.35;2.25;;;;;;;-143.85;100.00;70650.75;5035292;28;20448;-84
2022/03/28 04:50:22;;;;;;;3.53;2.85;;;;;;;-143.85;100.00;70650.75;5035276;28;20022;-84
2022/03/28 04:52:48;;;;;;;3.80;2.05;;;;;;;-143.85;100.00;70650.75;5034853;28;20479;-86
2022/03/28 04:55:14;;;;;;;1.52;1.45;;;;;;;-143.85;100.00;70650.75;5034952;28;20446;-84
2022/03/28 04:57:39;;;;;;;0.63;0.63;;;;;;;-143.85;100.00;70650.75;5034646;28;20392;-86
2022/03/28 05:00:07;;;;;;;1.35;1.30;;;;;;;-143.85;100.00;70650.75;5035497;28;20045;-81
2022/03/28 05:02:34;;;;;;;0.57;0.57;;;;;;;-143.85;100.00;70650.75;5033886;28;20025;-82
2022/03/28 05:05:01;;;;;;;1.48;1.30;;;;;;;-143.85;100.00;70650.75;5034770;28;20029;-82
2022/03/28 05:07:29;;;;;;;3.60;1.50;;;;;;;-143.85;100.00;70650.75;5044068;28;20077;-84
2022/03/28 05:09:56;;;;;;;3.35;1.70;;;;;;;-143.85;100.00;70650.75;5041549;28;20029;-83
2022/03/28 05:12:22;;;;;;;0.80;0.80;;;;;;;-143.85;100.00;70650.75;5032162;28;20032;-79
2022/03/28 05:14:49;;;;;;;1.83;1.73;;;;;;;-143.85;100.00;70650.75;5033671;28;20143;-80
2022/03/28 05:17:17;;;;;;;2.83;2.00;;;;;;;-143.85;100.00;70650.75;5033701;28;20025;-80
2022/03/28 05:19:43;;;;;;;;;;;;;;;-143.85;100.00;70650.75;5035403;28;20366;-80
2022/03/28 05:22:08;;;;;;;1.40;1.40;;;;;;;-143.85;100.00;70650.75;5033655;28;20011;-81
2022/03/28 05:24:34;;;;;;;2.17;2.08;;;;;;;-143.85;100.00;70650.75;5034805;28;20420;-81
2022/03/28 05:26:59;;;;;;;1.67;1.60;;;;;;;-143.85;100.00;70650.75;5033568;28;20030;-83
2022/03/28 05:29:25;;;;;;;1.50;1.40;;;;;;;-143.85;100.00;70650.75;5033307;28;20026;-81
2022/03/28 05:31:51;;;;;;;5.80;2.28;;;;;;;-143.85;100.00;70650.75;5034715;28;20437;-80
2022/03/28 05:34:16;;;;;;;2.03;1.80;;;;;;;-143.85;100.00;70650.75;5033486;28;20045;-80
2022/03/28 05:36:43;;;;;;;3.10;1.63;;;;;;;-143.85;100.00;70650.75;5032839;28;20033;-80
2022/03/28 05:39:09;;;;;;;2.03;1.88;;;;;;;-143.85;100.00;70650.75;5032779;28;20447;-80
2022/03/28 05:41:35;;;;;;;2.55;2.08;;;;;;;-143.85;100.00;70650.75;5034545;28;20029;-80
2022/03/28 05:44:01;;;;;;;2.47;1.95;;;;;;;-143.85;100.00;70650.75;5033219;28;20104;-79
2022/03/28 05:46:27;;;;;;;3.15;1.85;;;;;;;-143.85;100.00;70650.75;5033793;28;20243;-79
2022/03/28 05:48:53;;;;;;;2.17;2.03;;;;;;;-143.85;100.00;70650.75;5034196;28;20029;-79
2022/03/28 05:51:18;;;;;;;7.60;1.60;;;;;;;-143.85;100.00;70650.75;5032829;28;20025;-86
2022/03/28 05:53:44;;;;;;;4.18;2.03;;;;;;;-143.85;100.00;70650.75;5034448;28;20024;-86
2022/03/28 05:56:09;;;;;;;1.88;1.77;;;;;;;-143.85;100.00;70650.75;5033504;28;20036;-84
2022/03/28 05:58:35;;;;;;;1.40;1.15;;;;;;;-143.85;100.00;70650.75;5022664;28;20042;-85
2022/03/28 06:01:00;;;;;;;2.28;2.10;;;;;;;-143.85;100.00;70650.75;5013310;28;20045;-86
2022/03/28 06:03:26;;;;;;;5.60;4.18;;;;;;;-143.85;100.00;70650.75;5013199;28;20462;-86
2022/03/28 06:05:52;;;;;;;1.95;1.85;;;;;;;-143.85;100.00;70650.75;5014114;28;20036;-86
2022/03/28 06:08:18;;;;;;;3.08;1.95;;;;;;;-143.85;100.00;70650.75;5014391;28;20022;-85
2022/03/28 06:10:43;;;;;;;2.05;1.70;;;;;;;-143.85;100.00;70650.75;5013407;28;20036;-86
2022/03/28 06:13:09;;;;;;;9.23;2.95;;;;;;;-143.85;100.00;70650.75;5013056;28;20088;-86
2022/03/28 06:15:37;;;;;;;3.97;2.58;;;;;;;-143.85;100.00;70650.75;5013138;28;20590;-88
2022/03/28 06:18:06;;;;;;;1.80;1.60;;;;;;;-143.85;100.00;70650.75;5013376;28;20045;-87
2022/03/28 06:20:34;;;;;;;1.88;1.77;;;;;;;-143.85;100.00;70650.75;5014227;28;20025;-82
2022/03/28 06:23:00;;;;;;;1.75;1.65;;;;;;;-143.85;100.00;70650.75;5013147;28;20083;-80
2022/03/28 06:25:26;;;;;;;7.03;3.15;;;;;;;-143.85;100.00;70650.75;5013123;28;20026;-85
2022/03/28 06:27:51;;;;;;;5.18;1.80;;;;;;;-143.85;100.00;70650.75;5012925;28;20037;-81
2022/03/28 06:30:17;;;;;;;1.95;1.33;;;;;;;-143.85;100.00;70650.75;5012623;28;20392;-81
2022/03/28 06:32:42;;;;;;;1.63;1.52;;;;;;;-143.85;100.00;70650.75;5012904;28;20049;-81
2022/03/28 06:35:09;;;;;;;3.40;2.00;;;;;;;-143.85;100.00;70650.75;5012902;28;20022;-82
2022/03/28 06:37:35;;;;;;;5.28;2.65;;;;;;;-143.85;100.00;70650.75;5013788;28;20096;-82
2022/03/28 06:40:08;;;;;;;1.75;1.60;;;;;;;-143.85;100.00;70650.75;5012577;28;20099;-81
2022/03/28 06:42:33;;;;;;;1.55;1.48;;;;;;;-143.85;100.00;70650.75;5012741;28;20029;-82
2022/03/28 06:45:03;;;;;;;3.20;2.58;;;;;;;-143.85;100.00;70650.75;5012621;28;20029;-82
2022/03/28 06:47:29;;;;;;;6.03;2.50;;;;;;;-143.85;100.00;70650.75;5012512;28;20108;-83
2022/03/28 06:49:54;;;;;;;3.05;2.83;;;;;;;-143.85;100.00;70650.75;5012868;28;20116;-82
2022/03/28 06:52:20;;;;;;;2.75;1.95;;;;;;;-143.85;100.00;70650.75;5012885;28;20125;-83
2022/03/28 06:54:45;;;;;;;2.25;2.03;;;;;;;-143.85;100.00;70650.75;5013802;28;20029;-81
2022/03/28 06:57:11;;;;;;;3.05;2.15;;;;;;;-143.85;100.00;70650.75;5012748;28;20444;-81
2022/03/28 06:59:36;;;;;;;2.67;1.30;;;;;;;-143.85;100.00;70650.75;5012492;28;20461;-81
2022/03/28 07:02:02;;;;;;;5.07;3.20;;;;;;;-143.85;100.00;70650.75;5012935;28;20026;-82
2022/03/28 07:04:27;;;;;;;2.30;2.10;;;;;;;-143.85;100.00;70650.75;5011584;28;20389;-82
2022/03/28 07:06:53;;;;;;;3.13;2.70;;;;;;;-143.85;100.00;70650.75;5012375;28;20022;-82
2022/03/28 07:09:18;;;;;;;1.35;1.25;;;;;;;-143.85;100.00;70650.75;5013618;28;20034;-82
2022/03/28 07:11:45;;;;;;;19.75;2.28;;;;;;;-143.85;100.00;70650.75;5012619;28;20461;-82
2022/03/28 07:14:11;;;;;;;3.00;1.70;;;;;;;-143.85;100.00;70650.75;5013497;28;20080;-82
2022/03/28 07:16:37;;;;;;;1.15;1.15;;;;;;;-143.85;100.00;70650.75;5012451;28;20018;-82
2022/03/28 07:19:03;;;;;;;3.33;1.60;;;;;;;-143.85;100.00;70650.75;5012342;28;20018;-82
2022/03/28 07:21:28;;;;;;;2.70;2.50;;;;;;;-143.85;100.00;70650.75;5013475;28;20024;-82
2022/03/28 07:23:54;;;;;;;6.63;1.98;;;;;;;-143.85;100.00;70650.75;5012311;28;20022;-82
2022/03/28 07:26:20;;;;;;;12.82;2.78;;;;;;;-143.85;100.00;70650.75;5011948;28;20026;-82
2022/03/28 07:28:46;;;;;;;2.17;1.92;;;;;;;-143.85;100.00;70650.75;5012645;28;20029;-82
2022/03/28 07:31:11;;;;;;;7.25;4.28;;;;;;;-143.85;100.00;70650.75;5012588;28;20080;-82
2022/03/28 07:33:41;;;;;;;2.70;2.17;;;;;;;-143.85;100.00;70650.75;5012238;28;20044;-81
2022/03/28 07:36:08;;;;;;;10.38;3.42;;;;;;;-143.85;100.00;70650.75;5012298;28;20478;-81
2022/03/28 07:38:34;;;;;;;4.45;2.40;;;;;;;-143.85;100.00;70650.75;5012134;28;20540;-82
2022/03/28 07:41:00;;;;;;;3.42;2.33;;;;;;;-143.85;100.00;70650.75;5013230;28;20018;-81
2022/03/28 07:43:26;;;;;;;2.35;2.17;;;;;;;-143.85;100.00;70650.75;5012289;28;20104;-82
2022/03/28 07:45:54;;;;;;;1.38;1.38;;;;;;;-143.85;100.00;70650.75;5013225;28;20433;-82
2022/03/28 07:48:20;;;;;;;1.70;1.52;;;;;;;-143.85;100.00;70650.75;5013152;28;20026;-82
2022/03/28 07:50:46;;;;;;;4.47;2.33;;;;;;;-143.85;100.00;70650.75;5013756;28;20034;-83
2022/03/28 07:53:12;;;;;;;3.83;1.83;;;;;;;-143.85;100.00;70650.75;5033821;28;20030;-84
2022/03/28 07:55:39;;;;;;;3.95;3.55;;;;;;;-143.85;100.00;70650.75;5014416;28;20037;-82
2022/03/28 07:58:08;;;;;;;1.90;1.80;;;;;;;-143.85;100.00;70650.75;5011881;28;20083;-82
2022/03/28 08:00:34;;;;;;;13.63;2.58;;;;;;;-143.85;100.00;70650.75;5011795;28;20046;-82
2022/03/28 08:03:00;;;;;;;23.38;2.80;;;;;;;-143.85;100.00;70650.75;5012133;28;20105;-82
2022/03/28 08:05:27;;;;;;;3.47;2.15;;;;;;;-143.85;100.00;70650.75;5012281;28;20030;-83
2022/03/28 08:07:53;;;;;;;5.05;2.63;;;;;;;-143.85;100.00;70650.75;5011903;28;20492;-86
2022/03/28 08:10:20;;;;;;;1.98;1.83;;;;;;;-143.85;100.00;70650.75;5013213;28;20064;-86
2022/03/28 08:12:47;;;;;;;2.63;2.42;;;;;;;-143.85;100.00;70650.75;5012633;28;20052;-85
2022/03/28 08:15:15;;;;;;;4.88;1.90;;;;;;;-143.85;100.00;70650.75;5013480;28;20129;-84
2022/03/28 08:17:41;;;;;;;;;;;;;;;-143.85;100.00;70650.75;5016611;28;20057;-84
2022/03/28 08:20:09;;;;;;;3.53;3.10;;;;;;;-143.85;100.00;70650.75;5015797;28;19932;-85
2022/03/28 08:22:48;;;;;;;6.25;3.58;;;;;;;-143.85;100.00;70650.75;5016391;28;20515;-85
2022/03/28 08:25:14;;;;;;;2.20;1.92;;;;;;;-143.85;100.00;70650.75;5014887;28;20069;-83
2022/03/28 08:27:41;;;;;;;1.80;1.70;;;;;;;-143.85;100.00;70650.75;5014027;28;20060;-85
2022/03/28 08:30:07;;;;;;;3.25;3.05;;;;;;;-143.85;100.00;70650.75;5016671;28;20515;-85
2022/03/28 08:32:33;;;;;;;47.58;2.35;;;;;;;-143.85;100.00;70650.75;5034555;28;20034;-84
2022/03/28 08:34:59;;;;;;;1.88;1.45;;;;;;;-143.85;100.00;70650.75;5036135;28;20032;-85
2022/03/28 08:37:27;;;;;;;1.00;1.00;;;;;;;-143.85;100.00;70650.75;5022505;28;20022;-84
2022/03/28 08:39:55;;;;;;;2.05;1.95;;;;;;;-143.85;100.00;70650.75;5015528;28;20072;-83
2022/03/28 08:42:22;;;;;;;4.05;3.30;;;;;;;-143.85;100.00;70650.75;5015209;28;20112;-85
2022/03/28 08:44:48;;;;;;;3.22;2.92;;;;;;;-143.85;100.00;70650.75;5014704;28;20026;-84
2022/03/28 08:47:17;;;;;;;2.88;1.40;;;;;;;-143.85;100.00;70650.75;5015476;28;20029;-84
2022/03/28 08:49:42;;;;;;;2.30;2.10;;;;;;;-143.85;100.00;70650.75;5014992;28;20041;-84
2022/03/28 08:52:08;;;;;;;5.35;2.22;;;;;;;-143.85;100.00;70650.75;5014989;28;20547;-85
2022/03/28 08:54:34;;;;;;;2.90;2.70;;;;;;;-143.85;100.00;70650.75;5014989;28;20117;-84
2022/03/28 08:57:00;;;;;;;6.03;4.78;;;;;;;-143.85;100.00;70650.75;5015097;28;20116;-85
2022/03/28 08:59:25;;;;;;;2.45;2.35;;;;;;;-143.85;100.00;70650.75;5022412;28;20057;-84
2022/03/28 09:01:51;;;;;;;1.45;1.40;;;;;;;-143.85;100.00;70650.75;5034098;28;20508;-84
2022/03/28 09:04:16;;;;;;;4.45;1.73;;;;;;;-143.85;100.00;70650.75;5033422;28;20026;-84
2022/03/28 09:06:45;;;;;;;24.50;2.47;;;;;;;-143.85;100.00;70650.75;5034351;28;20113;-85
2022/03/28 09:09:19;;;;;;;2.53;2.13;;;;;;;-143.85;100.00;70650.75;5034527;28;20025;-85
2022/03/28 09:11:51;;;;;;;4.90;3.22;;;;;;;-143.85;100.00;70650.75;5035005;28;20369;-85
2022/03/28 09:14:30;;;;;;;1.98;1.88;;;;;;;-143.85;100.00;70650.75;5031942;28;20028;-84
2022/03/28 09:17:05;;;;;;;3.13;2.75;;;;;;;-143.85;100.00;70650.75;5034619;28;20029;-83
2022/03/28 09:19:55;;;;;;;2.38;1.60;;;;;;;-143.85;100.00;70650.75;5032998;28;20029;-84
2022/03/28 09:22:37;;;;;;;2.35;1.58;;;;;;;-143.85;100.00;70650.75;5034582;28;20083;-84
2022/03/28 09:25:14;;;;;;;3.47;2.45;;;;;;;-143.85;100.00;70650.75;5032778;28;20042;-83
2022/03/28 09:27:41;;;;;;;1.48;1.35;;;;;;;-143.85;100.00;70650.75;5033587;28;20033;-84
2022/03/28 09:30:10;;;;;;;3.35;3.05;;;;;;;-143.85;100.00;70650.75;5033935;28;20469;-83
2022/03/28 09:32:41;;;;;;;2.33;1.92;;;;;;;-143.85;100.00;70650.75;5034056;28;20028;-84
2022/03/28 09:35:13;;;;;;;3.97;3.08;;;;;;;-143.85;100.00;70650.75;5034643;28;20385;-85
2022/03/28 09:38:04;;;;;;;3.17;2.15;;;;;;;-143.85;100.00;70650.75;5033975;28;20470;-85
2022/03/28 09:40:45;;;;;;;3.83;2.42;;;;;;;-143.85;100.00;70650.75;5032397;28;20033;-84
2022/03/28 09:43:29;;;;;;;5.53;2.58;;;;;;;-143.85;100.00;70650.75;5033098;28;20025;-84
2022/03/28 09:45:56;;;;;;;1.88;1.63;;;;;;;-143.85;100.00;70650.75;5034263;28;20021;-86
2022/03/28 09:48:25;;;;;;;3.27;2.97;;;;;;;-143.85;100.00;70650.75;5033912;28;20032;-84
2022/03/28 09:51:05;;;;;;;3.22;2.92;;;;;;;-143.85;100.00;70650.75;5034052;28;20043;-85
2022/03/28 09:53:35;;;;;;;1.17;1.15;;;;;;;-143.85;100.00;70650.75;5033058;28;20025;-85
2022/03/28 09:56:06;;;;;;;4.22;2.80;;;;;;;-143.85;100.00;70650.75;5033695;28;20060;-83
2022/03/28 09:58:49;;;;;;;1.88;1.77;;;;;;;-143.85;100.00;70650.75;5033157;28;20026;-84
2022/03/28 10:01:24;;;;;;;6.53;3.25;;;;;;;-143.85;100.00;70650.75;5033589;28;20103;-85
2022/03/28 10:03:52;;;;;;;1.90;1.80;;;;;;;-143.85;100.00;70650.75;5033600;28;20029;-85
2022/03/28 10:06:18;;;;;;;2.70;2.00;;;;;;;-143.85;100.00;70650.75;5021745;28;20026;-84
2022/03/28 10:08:45;;;;;;;2.13;1.95;;;;;;;-143.85;100.00;70650.75;5014567;28;20148;-84
2022/03/28 10:11:11;;;;;;;1.70;1.60;;;;;;;-143.85;100.00;70650.75;5013620;28;20033;-85
2022/03/28 10:13:37;;;;;;;6.63;2.28;;;;;;;-143.85;100.00;70650.75;5015902;28;20014;-81
2022/03/28 10:16:04;;;;;;;5.70;1.58;;;;;;;-143.85;100.00;70650.75;5032813;28;20112;-78
2022/03/28 10:18:32;;;;;;;2.25;1.95;;;;;;;-143.85;100.00;70650.75;5014249;28;20022;-78
2022/03/28 10:21:05;;;;;;;4.40;3.17;;;;;;;-143.85;100.00;70650.75;5014359;28;20101;-77
2022/03/28 10:23:36;;;;;;;3.17;1.40;;;;;;;-143.85;100.00;70650.75;5012806;28;20756;-78
2022/03/28 10:26:02;;;;;;;4.13;2.88;;;;;;;-143.85;100.00;70650.75;5014036;28;20474;-77
2022/03/28 10:28:28;;;;;;;8.10;2.42;;;;;;;-143.85;100.00;70650.75;5012636;28;20060;-77
2022/03/28 10:31:12;;;;;;;2.90;2.63;;;;;;;-143.85;100.00;70650.75;5012607;28;20057;-77
2022/03/28 10:33:46;;;;;;;3.80;1.90;;;;;;;-143.85;100.00;70650.75;5012442;28;20465;-77
2022/03/28 10:36:27;;;;;;;3.45;2.45;;;;;;;-143.85;100.00;70650.75;5011974;28;20052;-79
2022/03/28 10:38:57;;;;;;;6.07;3.60;;;;;;;-143.85;100.00;70650.75;5015164;28;20026;-80
2022/03/28 10:41:26;;;;;;;2.55;2.35;;;;;;;-143.85;100.00;70650.75;5019416;28;20049;-80
2022/03/28 10:43:51;;;;;;;2.53;2.33;;;;;;;-143.85;100.00;70650.75;5032410;28;20057;-79
2022/03/28 10:46:19;;;;;;;1.95;1.70;;;;;;;-143.85;100.00;70650.75;5032789;28;20028;-78
2022/03/28 10:48:54;;;;;;;2.60;1.75;;;;;;;-143.85;100.00;70650.75;5033268;28;20021;-77
2022/03/28 10:51:24;;;;;;;2.17;2.03;;;;;;;-143.85;100.00;70650.75;5032246;28;20076;-78
2022/03/28 10:53:58;;;;;;;3.40;1.98;;;;;;;-143.85;100.00;70650.75;5030964;28;20032;-78
2022/03/28 10:56:31;;;;;;;2.20;1.50;;;;;;;-143.85;100.00;70650.75;5031423;28;20377;-78
2022/03/28 10:59:06;;;;;;;4.88;3.08;;;;;;;-143.85;100.00;70650.75;5028160;28;20026;-77
2022/03/28 11:01:33;;;;;;;2.75;1.88;;;;;;;-143.85;100.00;70650.75;5031193;28;20053;-78
2022/03/28 11:04:03;;;;;;;3.50;2.08;;;;;;;-143.85;100.00;70650.75;5031078;28;20017;-78
2022/03/28 11:07:06;;;;;;;1.83;1.35;;;;;;;-143.85;100.00;70650.75;5031317;28;20018;-77
2022/03/28 11:09:34;;;;;;;17.73;2.25;;;;;;;-143.85;100.00;70650.75;5031243;28;20392;-77